createdAt,value
2023-03-05T00:01:10.898Z,2.90
2023-03-05T00:03:37.850Z,2.00
2023-03-05T00:06:05.647Z,2.60
2023-03-05T00:08:34.730Z,2.80
2023-03-05T00:11:09.916Z,3.00
2023-03-05T00:13:37.112Z,3.50
2023-03-05T00:16:06.196Z,1.90
2023-03-05T00:18:33.369Z,2.50
2023-03-05T00:21:02.791Z,3.10
2023-03-05T00:23:29.627Z,2.10
2023-03-05T00:25:56.470Z,2.10
2023-03-05T00:28:23.524Z,1.90
2023-03-05T00:30:50.388Z,2.00
2023-03-05T00:33:17.314Z,2.40
2023-03-05T00:35:48.528Z,2.30
2023-03-05T00:38:15.307Z,2.50
2023-03-05T00:40:42.129Z,2.30
2023-03-05T00:43:11.596Z,2.20
2023-03-05T00:45:38.419Z,2.50
2023-03-05T00:48:05.561Z,3.20
2023-03-05T00:50:32.416Z,2.50
2023-03-05T00:52:59.257Z,2.50
2023-03-05T00:55:26.212Z,2.40
2023-03-05T00:57:53.067Z,2.10
2023-03-05T01:00:22.443Z,2.50
2023-03-05T01:02:49.211Z,2.70
2023-03-05T01:05:16.256Z,2.10
2023-03-05T01:07:42.996Z,2.20
2023-03-05T01:10:11.706Z,1.70
2023-03-05T01:12:39.287Z,1.90
2023-03-05T01:15:06.920Z,2.10
2023-03-05T01:17:34.601Z,1.60
2023-03-05T01:20:03.760Z,1.70
2023-03-05T01:22:30.478Z,1.80
2023-03-05T01:24:57.654Z,1.60
2023-03-05T01:27:24.404Z,1.80
2023-03-05T01:29:51.251Z,2.20
2023-03-05T01:32:18.080Z,1.70
2023-03-05T01:34:44.994Z,1.50
2023-03-05T01:37:11.946Z,1.60
2023-03-05T01:39:38.839Z,2.00
2023-03-05T01:42:06.397Z,1.70
2023-03-05T01:44:34.128Z,1.80
2023-03-05T01:47:01.227Z,2.30
2023-03-05T01:49:31.135Z,2.20
2023-03-05T01:52:06.820Z,2.50
2023-03-05T01:54:37.383Z,2.00
2023-03-05T01:57:09.195Z,2.10
2023-03-05T01:59:38.053Z,1.90
2023-03-05T02:02:08.141Z,1.60
2023-03-05T02:04:41.961Z,1.80
2023-03-05T02:07:09.713Z,2.00
2023-03-05T02:09:40.945Z,1.60
2023-03-05T02:12:09.189Z,1.90
2023-03-05T02:14:39.422Z,2.00
2023-03-05T02:17:06.253Z,2.50
2023-03-05T02:19:53.907Z,2.20
2023-03-05T02:22:22.781Z,2.00
2023-03-05T02:24:52.730Z,2.20
2023-03-05T02:27:23.370Z,2.00
2023-03-05T02:29:52.169Z,2.00
2023-03-05T02:32:19.000Z,3.20
2023-03-05T02:34:45.919Z,2.20
2023-03-05T02:37:12.775Z,1.80
2023-03-05T02:39:39.835Z,1.60
2023-03-05T02:42:07.182Z,1.80
2023-03-05T02:44:33.986Z,1.50
2023-03-05T02:47:01.172Z,2.00
2023-03-05T02:49:28.872Z,1.60
2023-03-05T02:51:55.667Z,1.80
2023-03-05T02:54:22.550Z,1.60
2023-03-05T02:56:50.006Z,1.90
2023-03-05T02:59:16.758Z,2.60
2023-03-05T03:01:43.595Z,1.80
2023-03-05T03:04:10.465Z,1.80
2023-03-05T03:06:37.236Z,1.80
2023-03-05T03:09:04.234Z,1.70
2023-03-05T03:11:31.181Z,2.50
2023-03-05T03:14:00.486Z,2.10
2023-03-05T03:16:27.198Z,2.20
2023-03-05T03:18:56.881Z,2.40
2023-03-05T03:21:25.581Z,1.80
2023-03-05T03:23:55.654Z,3.10
2023-03-05T03:26:22.515Z,2.00
2023-03-05T03:28:51.804Z,2.30
2023-03-05T03:31:18.733Z,2.10
2023-03-05T03:33:45.812Z,2.40
2023-03-05T03:36:13.156Z,2.40
2023-03-05T03:38:39.876Z,2.30
2023-03-05T03:41:08.156Z,2.20
2023-03-05T03:43:38.135Z,2.00
2023-03-05T03:46:07.005Z,3.30
2023-03-05T03:48:33.921Z,2.70
2023-03-05T03:51:04.693Z,3.00
2023-03-05T03:53:31.845Z,2.80
2023-03-05T03:55:59.607Z,2.60
2023-03-05T03:58:28.908Z,2.70
2023-03-05T04:00:55.635Z,3.30
2023-03-05T04:03:22.378Z,3.20
2023-03-05T04:05:51.710Z,2.90
2023-03-05T04:08:18.639Z,2.40
2023-03-05T04:10:45.507Z,2.50
2023-03-05T04:13:12.455Z,3.00
2023-03-05T04:15:41.580Z,2.50
2023-03-05T04:18:09.301Z,3.90
2023-03-05T04:20:36.136Z,3.00
2023-03-05T04:23:03.116Z,3.40
2023-03-05T04:25:30.067Z,2.90
2023-03-05T04:27:56.752Z,3.80
2023-03-05T04:30:23.653Z,2.90
2023-03-05T04:32:50.498Z,2.60
2023-03-05T04:35:17.457Z,2.80
2023-03-05T04:37:44.596Z,2.90
2023-03-05T04:40:12.289Z,2.80
2023-03-05T04:42:39.254Z,4.20
2023-03-05T04:45:07.923Z,2.30
2023-03-05T04:47:35.057Z,3.00
2023-03-05T04:50:01.923Z,2.10
2023-03-05T04:52:28.730Z,1.90
2023-03-05T04:54:57.747Z,2.30
2023-03-05T04:57:24.905Z,2.30
2023-03-05T04:59:51.688Z,2.20
2023-03-05T05:02:18.456Z,2.00
2023-03-05T05:04:46.071Z,2.50
2023-03-05T05:07:13.116Z,2.10
2023-03-05T05:09:41.837Z,2.40
2023-03-05T05:12:10.562Z,1.90
2023-03-05T05:14:39.906Z,2.10
2023-03-05T05:17:06.691Z,2.10
2023-03-05T05:19:36.719Z,1.90
2023-03-05T05:22:03.610Z,1.70
2023-03-05T05:24:30.454Z,2.10
2023-03-05T05:26:57.621Z,2.00
2023-03-05T05:29:24.455Z,1.90
2023-03-05T05:31:54.475Z,1.80
2023-03-05T05:34:21.281Z,1.60
2023-03-05T05:36:48.031Z,1.90
2023-03-05T05:39:15.230Z,1.60
2023-03-05T05:41:42.086Z,2.00
2023-03-05T05:44:08.921Z,1.80
2023-03-05T05:46:36.024Z,2.00
2023-03-05T05:49:03.131Z,1.90
2023-03-05T05:51:29.863Z,2.40
2023-03-05T05:53:56.773Z,2.50
2023-03-05T05:56:26.142Z,1.70
2023-03-05T05:58:53.392Z,1.40
2023-03-05T06:01:26.512Z,2.00
2023-03-05T06:03:53.320Z,1.60
2023-03-05T06:06:22.114Z,2.50
2023-03-05T06:08:50.111Z,1.70
2023-03-05T06:11:19.439Z,1.40
2023-03-05T06:13:47.366Z,1.60
2023-03-05T06:16:16.680Z,1.90
2023-03-05T06:18:44.161Z,1.90
2023-03-05T06:21:13.774Z,1.50
2023-03-05T06:23:40.640Z,1.50
2023-03-05T06:26:08.754Z,1.30
2023-03-05T06:28:35.892Z,1.90
2023-03-05T06:31:14.478Z,1.80
2023-03-05T06:33:41.754Z,2.20
2023-03-05T06:36:11.367Z,1.40
2023-03-05T06:38:38.722Z,1.90
2023-03-05T06:41:09.389Z,2.00
2023-03-05T06:43:38.624Z,1.80
2023-03-05T06:46:11.658Z,1.80
2023-03-05T06:48:38.932Z,1.50
2023-03-05T06:51:07.581Z,1.70
2023-03-05T06:53:34.469Z,1.50
2023-03-05T06:56:03.669Z,1.50
2023-03-05T06:58:32.769Z,1.50
2023-03-05T07:00:59.633Z,1.70
2023-03-05T07:03:26.571Z,1.40
2023-03-05T07:05:53.408Z,2.60
2023-03-05T07:08:20.077Z,1.50
2023-03-05T07:10:46.976Z,1.80
2023-03-05T07:13:13.853Z,3.00
2023-03-05T07:15:43.624Z,1.70
2023-03-05T07:18:10.542Z,2.20
2023-03-05T07:20:37.971Z,1.50
2023-03-05T07:23:05.059Z,1.80
2023-03-05T07:25:32.486Z,1.60
2023-03-05T07:27:59.333Z,1.70
2023-03-05T07:30:26.337Z,1.90
2023-03-05T07:32:53.132Z,2.00
2023-03-05T07:35:19.941Z,1.80
2023-03-05T07:37:46.926Z,1.70
2023-03-05T07:40:14.279Z,1.70
2023-03-05T07:42:41.211Z,1.70
2023-03-05T07:45:08.895Z,1.70
2023-03-05T07:47:35.938Z,1.80
2023-03-05T07:50:04.150Z,1.70
2023-03-05T07:52:30.854Z,2.30
2023-03-05T07:54:57.628Z,2.10
2023-03-05T07:57:24.465Z,1.70
2023-03-05T07:59:51.263Z,1.90
2023-03-05T08:02:21.761Z,2.00
2023-03-05T08:04:48.697Z,1.50
2023-03-05T08:07:16.462Z,1.40
2023-03-05T08:09:43.426Z,2.10
2023-03-05T08:12:10.617Z,1.60
2023-03-05T08:14:38.140Z,1.40
2023-03-05T08:17:06.147Z,1.40
2023-03-05T08:19:35.723Z,1.40
2023-03-05T08:22:02.555Z,1.20
2023-03-05T08:24:29.958Z,1.70
2023-03-05T08:26:58.088Z,1.80
2023-03-05T08:29:25.705Z,2.10
2023-03-05T08:31:53.780Z,1.80
2023-03-05T08:34:23.650Z,1.60
2023-03-05T08:36:50.598Z,1.70
2023-03-05T08:39:17.351Z,1.90
2023-03-05T08:41:44.185Z,2.30
2023-03-05T08:44:11.438Z,1.70
2023-03-05T08:46:41.302Z,1.60
2023-03-05T08:49:08.138Z,1.90
2023-03-05T08:51:36.112Z,1.80
2023-03-05T08:54:07.064Z,1.60
2023-03-05T08:56:37.355Z,1.60
2023-03-05T08:59:04.856Z,1.60
2023-03-05T09:01:32.523Z,1.90
2023-03-05T09:04:00.188Z,1.50
2023-03-05T09:06:27.899Z,1.10
2023-03-05T09:08:54.835Z,1.20
2023-03-05T09:11:22.032Z,1.20
2023-03-05T09:13:48.856Z,1.50
2023-03-05T09:16:17.480Z,2.00
2023-03-05T09:18:46.490Z,1.30
2023-03-05T09:21:17.604Z,1.40
2023-03-05T09:23:45.044Z,1.20
2023-03-05T09:26:13.451Z,1.30
2023-03-05T09:28:43.064Z,1.30
2023-03-05T09:31:10.983Z,1.40
2023-03-05T09:33:38.582Z,1.30
2023-03-05T09:36:14.275Z,1.00
2023-03-05T09:38:41.478Z,1.00
2023-03-05T09:41:24.094Z,1.30
2023-03-05T09:43:57.555Z,1.20
2023-03-05T09:46:50.389Z,1.20
2023-03-05T09:49:48.822Z,1.20
2023-03-05T09:52:20.340Z,1.60
2023-03-05T09:54:52.997Z,1.30
2023-03-05T09:57:56.911Z,0.90
2023-03-05T10:00:45.216Z,0.80
2023-03-05T10:03:24.055Z,1.10
2023-03-05T10:05:59.752Z,1.50
2023-03-05T10:08:32.654Z,1.30
2023-03-05T10:11:03.039Z,1.50
2023-03-05T10:13:37.306Z,1.20
2023-03-05T10:16:26.002Z,1.30
2023-03-05T10:19:06.963Z,0.90
2023-03-05T10:21:46.290Z,1.70
2023-03-05T10:24:44.243Z,1.30
2023-03-05T10:27:26.354Z,1.30
2023-03-05T10:30:00.244Z,1.40
2023-03-05T10:32:33.125Z,1.20
2023-03-05T10:35:39.504Z,1.30
2023-03-05T10:38:12.565Z,6.40
2023-03-05T10:40:52.473Z,1.40
2023-03-05T10:43:51.493Z,1.10
2023-03-05T10:46:24.347Z,1.30
2023-03-05T10:48:56.548Z,1.30
2023-03-05T10:51:30.403Z,1.40
2023-03-05T10:54:06.009Z,1.20
2023-03-05T10:56:33.073Z,1.20
2023-03-05T10:58:59.906Z,1.00
2023-03-05T11:01:31.900Z,1.30
2023-03-05T11:04:07.347Z,0.90
2023-03-05T11:06:37.232Z,1.00
2023-03-05T11:09:24.504Z,0.80
2023-03-05T11:12:00.487Z,1.20
2023-03-05T11:14:33.542Z,0.90
2023-03-05T11:17:11.682Z,1.60
2023-03-05T11:19:39.758Z,1.30
2023-03-05T11:22:16.501Z,1.60
2023-03-05T11:24:46.921Z,1.30
2023-03-05T11:27:31.516Z,1.10
2023-03-05T11:30:01.433Z,0.90
2023-03-05T11:32:29.953Z,0.70
2023-03-05T11:34:59.218Z,0.90
2023-03-05T11:37:35.124Z,0.70
2023-03-05T11:40:08.566Z,0.70
2023-03-05T11:42:35.520Z,0.80
2023-03-05T11:45:05.528Z,1.00
2023-03-05T11:47:32.280Z,0.80
2023-03-05T11:50:08.160Z,1.20
2023-03-05T11:52:46.438Z,1.10
2023-03-05T11:55:17.742Z,1.40
2023-03-05T11:58:01.631Z,1.00
2023-03-05T12:00:31.514Z,0.80
2023-03-05T12:03:05.193Z,1.10
2023-03-05T12:05:32.916Z,1.30
2023-03-05T12:08:01.773Z,0.90
2023-03-05T12:10:32.188Z,0.70
2023-03-05T12:13:01.911Z,1.20
2023-03-05T12:15:31.563Z,1.00
2023-03-05T12:18:26.149Z,0.80
2023-03-05T12:21:15.604Z,0.90
2023-03-05T12:23:59.264Z,1.20
2023-03-05T12:27:04.016Z,1.00
2023-03-05T12:29:44.821Z,0.90
2023-03-05T12:32:43.917Z,1.30
2023-03-05T12:35:30.742Z,0.90
2023-03-05T12:38:00.899Z,1.10
2023-03-05T12:40:35.145Z,3.20
2023-03-05T12:43:29.117Z,1.90
2023-03-05T12:46:24.416Z,1.20
2023-03-05T12:51:33.257Z,1.90
2023-03-05T12:54:39.910Z,1.60
2023-03-05T12:57:19.335Z,1.60
2023-03-05T12:59:58.459Z,0.90
2023-03-05T13:02:28.477Z,1.10
2023-03-05T13:04:59.721Z,0.80
2023-03-05T13:07:26.980Z,0.80
2023-03-05T13:09:58.207Z,0.70
2023-03-05T13:12:27.648Z,1.30
2023-03-05T13:15:06.547Z,1.00
2023-03-05T13:18:03.626Z,0.60
2023-03-05T13:20:34.062Z,0.70
2023-03-05T13:23:21.392Z,0.80
2023-03-05T13:26:01.909Z,1.10
2023-03-05T13:28:29.443Z,0.90
2023-03-05T13:31:04.946Z,0.50
2023-03-05T13:33:35.156Z,0.90
2023-03-05T13:36:06.430Z,0.80
2023-03-05T13:38:39.466Z,1.10
2023-03-05T13:41:19.527Z,1.00
2023-03-05T13:43:55.098Z,1.30
2023-03-05T13:46:34.289Z,0.70
2023-03-05T13:49:23.697Z,0.70
2023-03-05T13:51:55.801Z,0.80
2023-03-05T13:54:24.388Z,1.00
2023-03-05T13:57:04.539Z,1.10
2023-03-05T13:59:41.006Z,2.20
2023-03-05T14:02:19.691Z,6.10
2023-03-05T14:04:48.150Z,5.80
2023-03-05T14:07:41.428Z,2.60
2023-03-05T14:10:28.457Z,1.20
2023-03-05T14:12:55.824Z,1.00
2023-03-05T14:15:23.952Z,1.00
2023-03-05T14:17:51.765Z,0.90
2023-03-05T14:20:23.524Z,1.10
2023-03-05T14:23:01.226Z,1.10
2023-03-05T14:25:36.621Z,1.30
2023-03-05T14:28:25.461Z,1.00
2023-03-05T14:30:54.690Z,1.20
2023-03-05T14:33:27.608Z,1.30
2023-03-05T14:35:55.008Z,1.20
2023-03-05T14:38:28.159Z,1.60
2023-03-05T14:40:55.156Z,1.40
2023-03-05T14:43:22.045Z,1.80
2023-03-05T14:45:49.531Z,1.50
2023-03-05T14:48:19.199Z,1.80
2023-03-05T14:50:53.690Z,2.30
2023-03-05T14:53:24.479Z,1.70
2023-03-05T14:55:57.070Z,1.50
2023-03-05T14:58:27.660Z,1.60
2023-03-05T15:00:55.436Z,1.30
2023-03-05T15:03:23.133Z,1.30
2023-03-05T15:05:52.108Z,1.40
2023-03-05T15:08:22.168Z,1.10
2023-03-05T15:10:51.556Z,1.00
2023-03-05T15:13:19.627Z,0.90
2023-03-05T15:15:50.693Z,0.90
2023-03-05T15:18:19.860Z,1.20
2023-03-05T15:20:49.058Z,1.00
2023-03-05T15:23:16.039Z,1.20
2023-03-05T15:25:42.869Z,1.50
2023-03-05T15:28:10.228Z,1.00
2023-03-05T15:30:47.297Z,1.00
2023-03-05T15:33:16.782Z,1.10
2023-03-05T15:35:44.179Z,2.10
2023-03-05T15:38:13.572Z,1.60
2023-03-05T15:40:40.421Z,1.60
2023-03-05T15:43:10.644Z,1.20
2023-03-05T15:45:37.799Z,1.40
2023-03-05T15:48:04.744Z,1.70
2023-03-05T15:50:31.485Z,1.80
2023-03-05T15:53:01.520Z,1.80
2023-03-05T15:55:28.690Z,1.70
2023-03-05T15:57:55.367Z,1.40
2023-03-05T16:00:25.789Z,1.50
2023-03-05T16:02:53.250Z,1.80
2023-03-05T16:05:20.102Z,1.60
2023-03-05T16:07:49.192Z,1.70
2023-03-05T16:10:21.835Z,1.60
2023-03-05T16:12:55.607Z,3.60
2023-03-05T16:15:22.722Z,2.70
2023-03-05T16:17:53.558Z,2.90
2023-03-05T16:20:21.344Z,2.10
2023-03-05T16:22:48.232Z,2.40
2023-03-05T16:25:15.171Z,2.20
2023-03-05T16:27:42.137Z,3.00
2023-03-05T16:30:12.218Z,2.60
2023-03-05T16:32:39.167Z,1.90
2023-03-05T16:35:06.891Z,1.90
2023-03-05T16:37:33.831Z,2.00
2023-03-05T16:40:00.680Z,2.50
2023-03-05T16:42:27.629Z,2.50
2023-03-05T16:44:54.883Z,2.60
2023-03-05T16:47:21.732Z,2.50
2023-03-05T16:49:48.481Z,2.60
2023-03-05T16:52:19.724Z,2.50
2023-03-05T16:54:50.411Z,3.10
2023-03-05T16:57:22.172Z,2.30
2023-03-05T16:59:48.999Z,2.70
2023-03-05T17:02:15.683Z,3.10
2023-03-05T17:04:42.754Z,2.60
2023-03-05T17:07:10.522Z,3.00
2023-03-05T17:09:37.908Z,3.10
2023-03-05T17:12:07.104Z,2.50
2023-03-05T17:14:33.806Z,2.70
2023-03-05T17:17:01.619Z,2.70
2023-03-05T17:19:28.778Z,3.00
2023-03-05T17:21:55.710Z,2.80
2023-03-05T17:24:22.933Z,2.40
2023-03-05T17:26:50.328Z,2.50
2023-03-05T17:29:19.147Z,2.80
2023-03-05T17:31:46.983Z,2.50
2023-03-05T17:34:14.302Z,2.90
2023-03-05T17:36:41.118Z,2.70
2023-03-05T17:39:08.954Z,2.60
2023-03-05T17:41:35.973Z,2.30
2023-03-05T17:44:05.153Z,2.90
2023-03-05T17:46:31.939Z,2.70
2023-03-05T17:48:58.680Z,3.00
2023-03-05T17:51:29.013Z,2.60
2023-03-05T17:53:55.758Z,2.80
2023-03-05T17:56:23.140Z,3.00
2023-03-05T17:58:51.214Z,2.70
2023-03-05T18:01:32.939Z,2.80
2023-03-05T18:03:59.983Z,3.00
2023-03-05T18:06:27.426Z,2.40
2023-03-05T18:08:56.798Z,3.00
2023-03-05T18:11:23.743Z,2.50
2023-03-05T18:13:50.811Z,3.20
2023-03-05T18:16:18.469Z,2.90
2023-03-05T18:18:45.549Z,2.60
2023-03-05T18:21:12.468Z,3.20
2023-03-05T18:23:39.454Z,2.60
2023-03-05T18:26:06.268Z,2.80
2023-03-05T18:28:33.305Z,4.20
2023-03-05T18:31:01.529Z,3.30
2023-03-05T18:33:30.974Z,3.10
2023-03-05T18:35:58.206Z,3.20
2023-03-05T18:38:27.751Z,2.90
2023-03-05T18:40:56.745Z,2.70
2023-03-05T18:43:24.738Z,2.80
2023-03-05T18:45:53.232Z,2.90
2023-03-05T18:48:20.780Z,2.80
2023-03-05T18:50:51.721Z,3.90
2023-03-05T18:53:19.129Z,3.00
2023-03-05T18:55:46.131Z,3.30
2023-03-05T18:58:17.552Z,3.30
2023-03-05T19:00:47.813Z,3.40
2023-03-05T19:03:20.649Z,3.20
2023-03-05T19:05:50.276Z,3.00
2023-03-05T19:08:17.689Z,2.50
2023-03-05T19:10:44.508Z,2.70
2023-03-05T19:13:43.823Z,2.50
2023-03-05T19:16:14.827Z,2.50
2023-03-05T19:19:30.303Z,3.30
2023-03-05T19:21:59.772Z,2.70
2023-03-05T19:24:29.554Z,3.30
2023-03-05T19:27:01.377Z,3.60
2023-03-05T19:29:33.141Z,4.00
2023-03-05T19:32:00.119Z,3.70
2023-03-05T19:34:27.142Z,3.80
2023-03-05T19:36:54.184Z,3.80
2023-03-05T19:39:23.888Z,3.20
2023-03-05T19:41:50.963Z,3.30
2023-03-05T19:44:19.497Z,3.60
2023-03-05T19:46:48.564Z,2.30
2023-03-05T19:49:16.552Z,2.80
2023-03-05T19:51:44.184Z,3.10
2023-03-05T19:54:16.998Z,3.50
2023-03-05T19:56:47.894Z,3.40
2023-03-05T19:59:17.841Z,3.20
2023-03-05T20:01:45.891Z,3.10
2023-03-05T20:04:16.347Z,2.90
2023-03-05T20:06:43.184Z,3.40
2023-03-05T20:09:10.261Z,3.20
2023-03-05T20:11:37.769Z,3.20
2023-03-05T20:14:04.788Z,3.50
2023-03-05T20:16:36.077Z,3.50
2023-03-05T20:19:04.864Z,3.60
2023-03-05T20:21:41.283Z,2.70
2023-03-05T20:24:10.895Z,3.00
2023-03-05T20:26:41.170Z,3.00
2023-03-05T20:29:08.534Z,3.00
2023-03-05T20:31:37.395Z,3.00
2023-03-05T20:34:10.168Z,3.30
2023-03-05T20:36:37.154Z,2.90
2023-03-05T20:39:07.536Z,2.90
2023-03-05T20:41:36.487Z,2.90
2023-03-05T20:44:03.836Z,2.90
2023-03-05T20:46:33.320Z,2.70
2023-03-05T20:49:01.927Z,3.80
2023-03-05T20:51:36.511Z,2.90
2023-03-05T20:54:08.889Z,2.80
2023-03-05T20:56:36.087Z,2.40
2023-03-05T20:59:05.733Z,3.10
2023-03-05T21:01:33.883Z,3.50
2023-03-05T21:04:03.177Z,2.80
2023-03-05T21:06:31.648Z,2.70
2023-03-05T21:08:59.733Z,2.70
2023-03-05T21:11:26.696Z,2.70
2023-03-05T21:13:53.504Z,2.70
2023-03-05T21:16:23.294Z,2.70
2023-03-05T21:18:51.386Z,2.40
2023-03-05T21:21:21.225Z,2.40
2023-03-05T21:23:48.186Z,2.30
2023-03-05T21:26:16.031Z,2.80
2023-03-05T21:28:43.006Z,2.30
2023-03-05T21:31:15.834Z,2.20
2023-03-05T21:33:42.707Z,2.30
2023-03-05T21:36:10.446Z,2.40
2023-03-05T21:38:37.201Z,2.20
2023-03-05T21:41:05.328Z,1.80
2023-03-05T21:43:33.409Z,2.10
2023-03-05T21:46:02.124Z,1.80
2023-03-05T21:48:29.565Z,1.90
2023-03-05T21:50:57.517Z,2.00
2023-03-05T21:53:24.885Z,2.50
2023-03-05T21:56:21.038Z,2.20
2023-03-05T21:58:51.049Z,2.20
2023-03-05T22:01:19.621Z,2.00
2023-03-05T22:03:47.112Z,2.00
2023-03-05T22:06:16.112Z,2.10
2023-03-05T22:08:43.096Z,2.10
2023-03-05T22:11:11.000Z,2.30
2023-03-05T22:13:38.123Z,2.10
2023-03-05T22:16:09.295Z,2.20
2023-03-05T22:18:36.609Z,2.30
2023-03-05T22:21:03.878Z,2.20
2023-03-05T22:23:34.210Z,2.10
2023-03-05T22:26:03.156Z,2.00
2023-03-05T22:28:30.771Z,1.90
2023-03-05T22:30:57.649Z,2.00
2023-03-05T22:33:24.661Z,2.60
2023-03-05T22:35:51.801Z,2.50
2023-03-05T22:38:20.864Z,2.20
2023-03-05T22:40:49.475Z,2.10
2023-03-05T22:43:17.488Z,1.90
2023-03-05T22:45:44.343Z,2.40
2023-03-05T22:48:13.850Z,2.00
2023-03-05T22:50:42.204Z,1.80
2023-03-05T22:53:09.373Z,2.30
2023-03-05T22:55:40.339Z,1.70
2023-03-05T22:58:07.465Z,1.90
2023-03-05T23:00:34.248Z,2.10
2023-03-05T23:03:01.536Z,2.10
2023-03-05T23:05:28.397Z,1.90
2023-03-05T23:07:55.159Z,2.20
2023-03-05T23:10:26.948Z,1.80
2023-03-05T23:12:55.718Z,2.00
2023-03-05T23:15:23.557Z,1.80
2023-03-05T23:17:50.530Z,2.60
2023-03-05T23:20:20.906Z,2.30
2023-03-05T23:22:48.832Z,2.20
2023-03-05T23:25:16.673Z,2.40
2023-03-05T23:27:44.083Z,2.10
2023-03-05T23:30:20.845Z,2.20
2023-03-05T23:32:52.628Z,2.40
2023-03-05T23:35:22.364Z,2.40
2023-03-05T23:37:49.491Z,2.40
2023-03-05T23:40:19.453Z,2.60
2023-03-05T23:42:46.624Z,2.50
2023-03-05T23:45:15.873Z,2.40
2023-03-05T23:47:42.903Z,2.90
2023-03-05T23:50:14.418Z,2.80
2023-03-05T23:52:42.817Z,2.00
2023-03-05T23:55:15.485Z,2.20
2023-03-05T23:57:42.957Z,2.00
